sensor_id;sensor_type;location;lat;lon;timestamp;temperature;humidity
52273;DHT22;38227;50.942;4.016;2023-03-31T00:00:01;12.70;99.90
52273;DHT22;38227;50.942;4.016;2023-03-31T00:02:37;12.80;99.90
52273;DHT22;38227;50.942;4.016;2023-03-31T00:05:08;12.70;99.90
52273;DHT22;38227;50.942;4.016;2023-03-31T00:07:37;12.80;99.90
52273;DHT22;38227;50.942;4.016;2023-03-31T00:10:24;12.70;99.90
52273;DHT22;38227;50.942;4.016;2023-03-31T00:12:53;12.70;99.90
52273;DHT22;38227;50.942;4.016;2023-03-31T00:15:26;12.70;99.90
52273;DHT22;38227;50.942;4.016;2023-03-31T00:17:55;12.70;99.90
52273;DHT22;38227;50.942;4.016;2023-03-31T00:20:29;12.70;99.90
52273;DHT22;38227;50.942;4.016;2023-03-31T00:23:03;12.70;99.90
52273;DHT22;38227;50.942;4.016;2023-03-31T00:25:39;12.50;99.90
52273;DHT22;38227;50.942;4.016;2023-03-31T00:28:08;12.50;99.90
52273;DHT22;38227;50.942;4.016;2023-03-31T00:30:37;12.50;99.90
52273;DHT22;38227;50.942;4.016;2023-03-31T00:33:16;12.40;99.90
52273;DHT22;38227;50.942;4.016;2023-03-31T00:35:50;12.30;99.90
52273;DHT22;38227;50.942;4.016;2023-03-31T00:38:22;12.30;99.90
52273;DHT22;38227;50.942;4.016;2023-03-31T00:40:51;12.20;99.90
52273;DHT22;38227;50.942;4.016;2023-03-31T00:43:34;12.20;99.90
52273;DHT22;38227;50.942;4.016;2023-03-31T00:46:26;12.20;99.90
52273;DHT22;38227;50.942;4.016;2023-03-31T00:48:58;12.20;99.90
52273;DHT22;38227;50.942;4.016;2023-03-31T00:51:35;12.10;99.90
52273;DHT22;38227;50.942;4.016;2023-03-31T00:54:06;12.00;99.90
52273;DHT22;38227;50.942;4.016;2023-03-31T00:56:39;12.00;99.90
52273;DHT22;38227;50.942;4.016;2023-03-31T00:59:12;11.90;99.90
52273;DHT22;38227;50.942;4.016;2023-03-31T01:01:45;11.90;99.90
52273;DHT22;38227;50.942;4.016;2023-03-31T01:04:19;11.90;99.90
52273;DHT22;38227;50.942;4.016;2023-03-31T01:06:58;11.80;99.90
52273;DHT22;38227;50.942;4.016;2023-03-31T01:09:30;11.80;99.90
52273;DHT22;38227;50.942;4.016;2023-03-31T01:12:05;11.80;99.90
52273;DHT22;38227;50.942;4.016;2023-03-31T01:14:37;11.80;99.90
52273;DHT22;38227;50.942;4.016;2023-03-31T01:17:05;11.90;99.90
52273;DHT22;38227;50.942;4.016;2023-03-31T01:29:22;12.00;99.90
52273;DHT22;38227;50.942;4.016;2023-03-31T01:39:01;12.00;99.90
52273;DHT22;38227;50.942;4.016;2023-03-31T01:47:38;12.10;99.90
52273;DHT22;38227;50.942;4.016;2023-03-31T01:50:41;12.00;99.90
52273;DHT22;38227;50.942;4.016;2023-03-31T01:56:31;12.10;99.90
52273;DHT22;38227;50.942;4.016;2023-03-31T01:59:27;12.10;99.90
52273;DHT22;38227;50.942;4.016;2023-03-31T02:02:09;12.00;99.90
52273;DHT22;38227;50.942;4.016;2023-03-31T02:04:47;12.00;99.90
52273;DHT22;38227;50.942;4.016;2023-03-31T02:07:20;12.00;99.90
52273;DHT22;38227;50.942;4.016;2023-03-31T02:09:55;12.00;99.90
52273;DHT22;38227;50.942;4.016;2023-03-31T02:12:27;11.90;99.90
52273;DHT22;38227;50.942;4.016;2023-03-31T02:15:00;11.80;99.90
52273;DHT22;38227;50.942;4.016;2023-03-31T02:17:40;11.80;99.90
52273;DHT22;38227;50.942;4.016;2023-03-31T02:20:12;11.70;99.90
52273;DHT22;38227;50.942;4.016;2023-03-31T02:22:44;11.80;99.90
52273;DHT22;38227;50.942;4.016;2023-03-31T02:25:15;11.70;99.90
52273;DHT22;38227;50.942;4.016;2023-03-31T02:27:58;11.60;99.90
52273;DHT22;38227;50.942;4.016;2023-03-31T02:30:35;11.50;99.90
52273;DHT22;38227;50.942;4.016;2023-03-31T02:33:09;11.40;99.90
52273;DHT22;38227;50.942;4.016;2023-03-31T02:35:37;11.50;99.90
52273;DHT22;38227;50.942;4.016;2023-03-31T02:38:09;11.40;99.90
52273;DHT22;38227;50.942;4.016;2023-03-31T02:40:39;11.30;99.90
52273;DHT22;38227;50.942;4.016;2023-03-31T02:43:07;11.30;99.90
52273;DHT22;38227;50.942;4.016;2023-03-31T02:45:44;11.30;99.90
52273;DHT22;38227;50.942;4.016;2023-03-31T02:55:24;11.20;99.90
52273;DHT22;38227;50.942;4.016;2023-03-31T03:01:18;11.30;99.90
52273;DHT22;38227;50.942;4.016;2023-03-31T03:04:10;11.30;99.90
52273;DHT22;38227;50.942;4.016;2023-03-31T03:07:03;11.30;99.90
52273;DHT22;38227;50.942;4.016;2023-03-31T03:13:34;11.20;99.90
52273;DHT22;38227;50.942;4.016;2023-03-31T03:16:12;11.20;99.90
52273;DHT22;38227;50.942;4.016;2023-03-31T03:19:05;11.30;99.90
52273;DHT22;38227;50.942;4.016;2023-03-31T03:21:31;11.20;99.90
52273;DHT22;38227;50.942;4.016;2023-03-31T03:24:00;11.20;99.90
52273;DHT22;38227;50.942;4.016;2023-03-31T03:27:08;11.20;99.90
52273;DHT22;38227;50.942;4.016;2023-03-31T03:30:15;11.20;99.90
52273;DHT22;38227;50.942;4.016;2023-03-31T03:33:22;11.20;99.90
52273;DHT22;38227;50.942;4.016;2023-03-31T03:36:29;11.20;99.90
52273;DHT22;38227;50.942;4.016;2023-03-31T03:39:38;11.20;99.90
52273;DHT22;38227;50.942;4.016;2023-03-31T03:42:29;11.20;99.90
52273;DHT22;38227;50.942;4.016;2023-03-31T03:44:57;11.20;99.90
52273;DHT22;38227;50.942;4.016;2023-03-31T03:47:47;11.10;99.90
52273;DHT22;38227;50.942;4.016;2023-03-31T03:50:46;11.00;99.90
52273;DHT22;38227;50.942;4.016;2023-03-31T03:53:18;11.00;99.90
52273;DHT22;38227;50.942;4.016;2023-03-31T03:56:18;11.00;99.90
52273;DHT22;38227;50.942;4.016;2023-03-31T03:59:05;11.00;99.90
52273;DHT22;38227;50.942;4.016;2023-03-31T04:01:38;11.00;99.90
52273;DHT22;38227;50.942;4.016;2023-03-31T04:04:06;11.00;99.90
52273;DHT22;38227;50.942;4.016;2023-03-31T04:06:34;11.00;99.90
52273;DHT22;38227;50.942;4.016;2023-03-31T04:09:06;11.00;99.90
52273;DHT22;38227;50.942;4.016;2023-03-31T04:11:34;11.00;99.90
52273;DHT22;38227;50.942;4.016;2023-03-31T04:14:02;11.00;99.90
52273;DHT22;38227;50.942;4.016;2023-03-31T04:16:41;10.90;99.90
52273;DHT22;38227;50.942;4.016;2023-03-31T04:19:12;10.90;99.90
52273;DHT22;38227;50.942;4.016;2023-03-31T04:21:42;11.00;99.90
52273;DHT22;38227;50.942;4.016;2023-03-31T04:24:29;10.90;99.90
52273;DHT22;38227;50.942;4.016;2023-03-31T04:26:59;10.70;99.90
52273;DHT22;38227;50.942;4.016;2023-03-31T04:29:32;10.70;99.90
52273;DHT22;38227;50.942;4.016;2023-03-31T04:32:05;10.60;99.90
52273;DHT22;38227;50.942;4.016;2023-03-31T04:34:33;10.60;99.90
52273;DHT22;38227;50.942;4.016;2023-03-31T04:37:04;10.60;99.90
52273;DHT22;38227;50.942;4.016;2023-03-31T04:39:35;10.60;99.90
52273;DHT22;38227;50.942;4.016;2023-03-31T04:42:13;10.60;99.90
52273;DHT22;38227;50.942;4.016;2023-03-31T04:44:44;10.70;99.90
52273;DHT22;38227;50.942;4.016;2023-03-31T04:47:19;10.70;99.90
52273;DHT22;38227;50.942;4.016;2023-03-31T04:49:47;10.70;99.90
52273;DHT22;38227;50.942;4.016;2023-03-31T04:52:19;10.80;99.90
52273;DHT22;38227;50.942;4.016;2023-03-31T04:54:48;10.80;99.90
52273;DHT22;38227;50.942;4.016;2023-03-31T04:57:26;10.90;99.90
52273;DHT22;38227;50.942;4.016;2023-03-31T04:59:55;10.80;99.90
52273;DHT22;38227;50.942;4.016;2023-03-31T05:02:33;10.90;99.90
52273;DHT22;38227;50.942;4.016;2023-03-31T05:05:01;10.90;99.90
52273;DHT22;38227;50.942;4.016;2023-03-31T05:07:33;10.90;99.90
52273;DHT22;38227;50.942;4.016;2023-03-31T05:10:01;10.90;99.90
52273;DHT22;38227;50.942;4.016;2023-03-31T05:12:32;11.00;99.90
52273;DHT22;38227;50.942;4.016;2023-03-31T05:14:59;11.00;99.90
52273;DHT22;38227;50.942;4.016;2023-03-31T05:17:31;11.10;99.90
52273;DHT22;38227;50.942;4.016;2023-03-31T05:20:01;11.20;99.90
52273;DHT22;38227;50.942;4.016;2023-03-31T05:22:36;11.20;99.90
52273;DHT22;38227;50.942;4.016;2023-03-31T05:25:04;11.20;99.90
52273;DHT22;38227;50.942;4.016;2023-03-31T05:27:34;11.20;99.90
52273;DHT22;38227;50.942;4.016;2023-03-31T05:30:05;11.30;99.90
52273;DHT22;38227;50.942;4.016;2023-03-31T05:32:35;11.30;99.90
52273;DHT22;38227;50.942;4.016;2023-03-31T05:35:03;11.40;99.90
52273;DHT22;38227;50.942;4.016;2023-03-31T05:37:37;11.40;99.90
52273;DHT22;38227;50.942;4.016;2023-03-31T05:40:07;11.40;99.90
52273;DHT22;38227;50.942;4.016;2023-03-31T05:42:39;11.40;99.90
52273;DHT22;38227;50.942;4.016;2023-03-31T05:45:08;11.40;99.90
52273;DHT22;38227;50.942;4.016;2023-03-31T05:47:46;11.50;99.90
52273;DHT22;38227;50.942;4.016;2023-03-31T05:50:15;11.60;99.90
52273;DHT22;38227;50.942;4.016;2023-03-31T05:52:45;11.60;99.90
52273;DHT22;38227;50.942;4.016;2023-03-31T05:55:17;11.60;99.90
52273;DHT22;38227;50.942;4.016;2023-03-31T05:57:51;11.60;99.90
52273;DHT22;38227;50.942;4.016;2023-03-31T06:00:23;11.70;99.90
52273;DHT22;38227;50.942;4.016;2023-03-31T06:02:51;11.70;99.90
52273;DHT22;38227;50.942;4.016;2023-03-31T06:05:23;11.70;99.90
52273;DHT22;38227;50.942;4.016;2023-03-31T06:07:56;11.80;99.90
52273;DHT22;38227;50.942;4.016;2023-03-31T06:10:24;11.80;99.90
52273;DHT22;38227;50.942;4.016;2023-03-31T06:12:53;11.80;99.90
52273;DHT22;38227;50.942;4.016;2023-03-31T06:15:21;11.80;99.90
52273;DHT22;38227;50.942;4.016;2023-03-31T06:17:49;11.80;99.90
52273;DHT22;38227;50.942;4.016;2023-03-31T06:20:22;11.70;99.90
52273;DHT22;38227;50.942;4.016;2023-03-31T06:22:57;11.70;99.90
52273;DHT22;38227;50.942;4.016;2023-03-31T06:25:26;11.80;99.90
52273;DHT22;38227;50.942;4.016;2023-03-31T06:27:55;11.80;99.90
52273;DHT22;38227;50.942;4.016;2023-03-31T06:30:25;11.90;99.90
52273;DHT22;38227;50.942;4.016;2023-03-31T06:32:54;11.90;99.90
52273;DHT22;38227;50.942;4.016;2023-03-31T06:35:25;12.00;99.90
52273;DHT22;38227;50.942;4.016;2023-03-31T06:37:55;12.00;99.90
52273;DHT22;38227;50.942;4.016;2023-03-31T06:40:25;12.00;99.90
52273;DHT22;38227;50.942;4.016;2023-03-31T06:42:55;12.10;99.90
52273;DHT22;38227;50.942;4.016;2023-03-31T06:45:29;12.00;99.90
52273;DHT22;38227;50.942;4.016;2023-03-31T06:47:58;12.10;99.90
52273;DHT22;38227;50.942;4.016;2023-03-31T06:50:31;12.10;99.90
52273;DHT22;38227;50.942;4.016;2023-03-31T06:53:10;12.20;99.90
52273;DHT22;38227;50.942;4.016;2023-03-31T06:55:44;12.20;99.90
52273;DHT22;38227;50.942;4.016;2023-03-31T06:58:16;12.20;99.90
52273;DHT22;38227;50.942;4.016;2023-03-31T07:00:49;12.20;99.90
52273;DHT22;38227;50.942;4.016;2023-03-31T07:03:21;12.20;99.90
52273;DHT22;38227;50.942;4.016;2023-03-31T07:05:51;12.20;99.90
52273;DHT22;38227;50.942;4.016;2023-03-31T07:08:23;12.20;99.90
52273;DHT22;38227;50.942;4.016;2023-03-31T07:11:10;12.20;99.90
52273;DHT22;38227;50.942;4.016;2023-03-31T07:13:39;12.20;99.90
52273;DHT22;38227;50.942;4.016;2023-03-31T07:16:14;12.20;99.90
52273;DHT22;38227;50.942;4.016;2023-03-31T07:18:43;12.30;99.90
52273;DHT22;38227;50.942;4.016;2023-03-31T07:21:12;12.20;99.90
52273;DHT22;38227;50.942;4.016;2023-03-31T07:23:51;12.20;99.90
52273;DHT22;38227;50.942;4.016;2023-03-31T07:26:21;12.10;99.90
52273;DHT22;38227;50.942;4.016;2023-03-31T07:28:52;12.20;99.90
52273;DHT22;38227;50.942;4.016;2023-03-31T07:31:24;12.20;99.90
52273;DHT22;38227;50.942;4.016;2023-03-31T07:33:54;12.20;99.90
52273;DHT22;38227;50.942;4.016;2023-03-31T07:36:24;12.20;99.90
52273;DHT22;38227;50.942;4.016;2023-03-31T07:38:53;12.20;99.90
52273;DHT22;38227;50.942;4.016;2023-03-31T07:41:23;12.10;99.90
52273;DHT22;38227;50.942;4.016;2023-03-31T07:43:54;12.20;99.90
52273;DHT22;38227;50.942;4.016;2023-03-31T07:46:27;12.20;99.90
52273;DHT22;38227;50.942;4.016;2023-03-31T07:48:59;12.30;99.90
52273;DHT22;38227;50.942;4.016;2023-03-31T07:51:29;12.30;99.90
52273;DHT22;38227;50.942;4.016;2023-03-31T07:54:00;12.30;99.90
52273;DHT22;38227;50.942;4.016;2023-03-31T07:56:31;12.20;99.90
52273;DHT22;38227;50.942;4.016;2023-03-31T07:59:06;12.20;99.90
52273;DHT22;38227;50.942;4.016;2023-03-31T08:01:44;12.10;99.90
52273;DHT22;38227;50.942;4.016;2023-03-31T08:04:22;11.90;99.90
52273;DHT22;38227;50.942;4.016;2023-03-31T08:06:53;11.90;99.90
52273;DHT22;38227;50.942;4.016;2023-03-31T08:09:23;11.90;99.90
52273;DHT22;38227;50.942;4.016;2023-03-31T08:12:01;11.90;99.90
52273;DHT22;38227;50.942;4.016;2023-03-31T08:14:31;12.00;99.90
52273;DHT22;38227;50.942;4.016;2023-03-31T08:17:01;12.00;99.90
52273;DHT22;38227;50.942;4.016;2023-03-31T08:19:30;12.10;99.90
52273;DHT22;38227;50.942;4.016;2023-03-31T08:22:00;12.20;99.90
52273;DHT22;38227;50.942;4.016;2023-03-31T08:24:30;12.30;99.90
52273;DHT22;38227;50.942;4.016;2023-03-31T08:27:00;12.40;99.90
52273;DHT22;38227;50.942;4.016;2023-03-31T08:29:30;12.50;99.90
52273;DHT22;38227;50.942;4.016;2023-03-31T08:32:10;12.50;99.90
52273;DHT22;38227;50.942;4.016;2023-03-31T08:34:40;12.50;99.90
52273;DHT22;38227;50.942;4.016;2023-03-31T08:37:10;12.50;99.90
52273;DHT22;38227;50.942;4.016;2023-03-31T08:39:42;12.50;99.90
52273;DHT22;38227;50.942;4.016;2023-03-31T08:42:20;12.50;99.90
52273;DHT22;38227;50.942;4.016;2023-03-31T08:48:20;12.60;99.90
52273;DHT22;38227;50.942;4.016;2023-03-31T08:51:22;12.70;99.90
52273;DHT22;38227;50.942;4.016;2023-03-31T08:54:24;12.70;99.90
52273;DHT22;38227;50.942;4.016;2023-03-31T08:57:35;12.70;99.90
52273;DHT22;38227;50.942;4.016;2023-03-31T09:00:17;12.80;99.90
52273;DHT22;38227;50.942;4.016;2023-03-31T09:03:10;12.80;99.90
52273;DHT22;38227;50.942;4.016;2023-03-31T09:06:07;12.70;99.90
52273;DHT22;38227;50.942;4.016;2023-03-31T09:09:10;12.70;99.90
52273;DHT22;38227;50.942;4.016;2023-03-31T09:11:53;12.70;99.90
52273;DHT22;38227;50.942;4.016;2023-03-31T09:17:43;12.80;99.90
52273;DHT22;38227;50.942;4.016;2023-03-31T09:20:24;12.80;99.90
52273;DHT22;38227;50.942;4.016;2023-03-31T09:27:01;12.80;99.90
52273;DHT22;38227;50.942;4.016;2023-03-31T09:29:50;12.90;99.90
52273;DHT22;38227;50.942;4.016;2023-03-31T09:32:30;12.90;99.90
52273;DHT22;38227;50.942;4.016;2023-03-31T09:35:23;13.00;99.90
52273;DHT22;38227;50.942;4.016;2023-03-31T09:37:57;13.10;99.90
52273;DHT22;38227;50.942;4.016;2023-03-31T09:40:28;13.20;99.90
52273;DHT22;38227;50.942;4.016;2023-03-31T09:43:21;13.00;99.90
52273;DHT22;38227;50.942;4.016;2023-03-31T09:45:51;12.90;99.90
52273;DHT22;38227;50.942;4.016;2023-03-31T09:48:27;12.90;99.90
52273;DHT22;38227;50.942;4.016;2023-03-31T09:51:06;12.90;99.90
52273;DHT22;38227;50.942;4.016;2023-03-31T09:56:51;13.00;99.90
52273;DHT22;38227;50.942;4.016;2023-03-31T09:59:33;12.90;99.90
52273;DHT22;38227;50.942;4.016;2023-03-31T10:02:28;13.00;99.90
52273;DHT22;38227;50.942;4.016;2023-03-31T10:05:02;12.90;99.90
52273;DHT22;38227;50.942;4.016;2023-03-31T10:07:32;12.90;99.90
52273;DHT22;38227;50.942;4.016;2023-03-31T10:10:17;13.00;99.90
52273;DHT22;38227;50.942;4.016;2023-03-31T10:12:52;13.10;99.90
52273;DHT22;38227;50.942;4.016;2023-03-31T10:15:37;13.20;99.90
52273;DHT22;38227;50.942;4.016;2023-03-31T10:18:18;13.20;99.90
52273;DHT22;38227;50.942;4.016;2023-03-31T10:20:52;13.40;99.90
52273;DHT22;38227;50.942;4.016;2023-03-31T10:23:31;13.40;99.90
52273;DHT22;38227;50.942;4.016;2023-03-31T10:26:18;13.50;99.90
52273;DHT22;38227;50.942;4.016;2023-03-31T10:28:49;13.40;99.90
52273;DHT22;38227;50.942;4.016;2023-03-31T10:31:25;13.40;99.90
52273;DHT22;38227;50.942;4.016;2023-03-31T10:34:03;13.20;99.90
52273;DHT22;38227;50.942;4.016;2023-03-31T10:36:34;13.30;99.90
52273;DHT22;38227;50.942;4.016;2023-03-31T10:39:30;13.30;99.90
52273;DHT22;38227;50.942;4.016;2023-03-31T10:42:00;13.30;99.90
52273;DHT22;38227;50.942;4.016;2023-03-31T10:44:43;13.30;99.90
52273;DHT22;38227;50.942;4.016;2023-03-31T10:47:22;13.30;99.90
52273;DHT22;38227;50.942;4.016;2023-03-31T10:49:59;13.40;99.90
52273;DHT22;38227;50.942;4.016;2023-03-31T10:52:44;13.40;99.90
52273;DHT22;38227;50.942;4.016;2023-03-31T10:55:25;13.40;99.90
52273;DHT22;38227;50.942;4.016;2023-03-31T11:11:31;13.10;99.90
52273;DHT22;38227;50.942;4.016;2023-03-31T11:17:51;13.20;99.90
52273;DHT22;38227;50.942;4.016;2023-03-31T11:21:16;13.30;99.90
52273;DHT22;38227;50.942;4.016;2023-03-31T11:30:44;13.20;99.90
52273;DHT22;38227;50.942;4.016;2023-03-31T11:42:02;13.10;99.90
52273;DHT22;38227;50.942;4.016;2023-03-31T11:44:52;13.00;99.90
52273;DHT22;38227;50.942;4.016;2023-03-31T11:47:35;12.90;99.90
52273;DHT22;38227;50.942;4.016;2023-03-31T11:50:21;12.90;99.90
52273;DHT22;38227;50.942;4.016;2023-03-31T11:53:16;12.90;99.90
52273;DHT22;38227;50.942;4.016;2023-03-31T11:55:58;12.90;99.90
52273;DHT22;38227;50.942;4.016;2023-03-31T12:04:53;12.40;99.90
52273;DHT22;38227;50.942;4.016;2023-03-31T12:07:40;12.40;99.90
52273;DHT22;38227;50.942;4.016;2023-03-31T12:10:31;12.40;99.90
52273;DHT22;38227;50.942;4.016;2023-03-31T12:16:51;12.50;99.90
52273;DHT22;38227;50.942;4.016;2023-03-31T12:22:55;12.80;99.90
52273;DHT22;38227;50.942;4.016;2023-03-31T12:25:55;12.90;99.90
52273;DHT22;38227;50.942;4.016;2023-03-31T12:28:39;12.90;99.90
52273;DHT22;38227;50.942;4.016;2023-03-31T12:31:22;12.90;99.90
52273;DHT22;38227;50.942;4.016;2023-03-31T12:34:16;12.90;99.90
52273;DHT22;38227;50.942;4.016;2023-03-31T13:01:14;12.60;99.90
52273;DHT22;38227;50.942;4.016;2023-03-31T13:03:52;12.70;99.90
52273;DHT22;38227;50.942;4.016;2023-03-31T13:17:36;12.80;99.90
52273;DHT22;38227;50.942;4.016;2023-03-31T13:21:04;13.00;99.90
52273;DHT22;38227;50.942;4.016;2023-03-31T13:24:31;13.30;99.90
52273;DHT22;38227;50.942;4.016;2023-03-31T13:27:35;13.50;99.90
52273;DHT22;38227;50.942;4.016;2023-03-31T13:31:08;13.50;99.90
52273;DHT22;38227;50.942;4.016;2023-03-31T13:34:18;13.40;99.90
52273;DHT22;38227;50.942;4.016;2023-03-31T13:57:08;13.10;99.90
52273;DHT22;38227;50.942;4.016;2023-03-31T14:03:36;12.70;99.90
52273;DHT22;38227;50.942;4.016;2023-03-31T14:06:40;12.80;99.90
52273;DHT22;38227;50.942;4.016;2023-03-31T14:12:38;12.80;99.90
52273;DHT22;38227;50.942;4.016;2023-03-31T14:18:32;12.60;99.90
52273;DHT22;38227;50.942;4.016;2023-03-31T14:21:43;12.60;99.90
52273;DHT22;38227;50.942;4.016;2023-03-31T14:24:49;12.60;99.90
52273;DHT22;38227;50.942;4.016;2023-03-31T14:37:16;12.70;99.90
52273;DHT22;38227;50.942;4.016;2023-03-31T14:39:50;12.60;99.90
52273;DHT22;38227;50.942;4.016;2023-03-31T14:42:30;12.50;99.90
52273;DHT22;38227;50.942;4.016;2023-03-31T14:45:05;12.50;99.90
52273;DHT22;38227;50.942;4.016;2023-03-31T14:47:37;12.60;99.90
52273;DHT22;38227;50.942;4.016;2023-03-31T14:50:17;12.50;99.90
52273;DHT22;38227;50.942;4.016;2023-03-31T14:52:51;12.30;99.90
52273;DHT22;38227;50.942;4.016;2023-03-31T14:55:29;12.30;99.90
52273;DHT22;38227;50.942;4.016;2023-03-31T14:58:00;12.30;99.90
52273;DHT22;38227;50.942;4.016;2023-03-31T15:00:53;12.20;99.90
52273;DHT22;38227;50.942;4.016;2023-03-31T15:03:34;12.10;99.90
52273;DHT22;38227;50.942;4.016;2023-03-31T15:06:26;11.90;99.90
52273;DHT22;38227;50.942;4.016;2023-03-31T15:09:04;11.90;99.90
52273;DHT22;38227;50.942;4.016;2023-03-31T15:11:42;11.90;99.90
52273;DHT22;38227;50.942;4.016;2023-03-31T15:15:00;12.00;99.90
52273;DHT22;38227;50.942;4.016;2023-03-31T15:17:48;12.10;99.90
52273;DHT22;38227;50.942;4.016;2023-03-31T15:20:36;12.10;99.90
52273;DHT22;38227;50.942;4.016;2023-03-31T15:23:27;12.20;99.90
52273;DHT22;38227;50.942;4.016;2023-03-31T15:26:11;12.30;99.90
52273;DHT22;38227;50.942;4.016;2023-03-31T15:29:13;12.30;99.90
52273;DHT22;38227;50.942;4.016;2023-03-31T15:31:57;12.20;99.90
52273;DHT22;38227;50.942;4.016;2023-03-31T15:34:32;12.20;99.90
52273;DHT22;38227;50.942;4.016;2023-03-31T15:37:03;12.20;99.90
52273;DHT22;38227;50.942;4.016;2023-03-31T15:39:36;12.30;99.90
52273;DHT22;38227;50.942;4.016;2023-03-31T15:42:07;12.20;99.90
52273;DHT22;38227;50.942;4.016;2023-03-31T15:47:36;12.30;99.90
52273;DHT22;38227;50.942;4.016;2023-03-31T15:50:23;12.40;99.90
52273;DHT22;38227;50.942;4.016;2023-03-31T15:52:53;12.40;99.90
52273;DHT22;38227;50.942;4.016;2023-03-31T15:55:29;12.40;99.90
52273;DHT22;38227;50.942;4.016;2023-03-31T15:58:23;12.50;99.90
52273;DHT22;38227;50.942;4.016;2023-03-31T16:01:05;12.60;99.90
52273;DHT22;38227;50.942;4.016;2023-03-31T16:03:36;12.60;99.90
52273;DHT22;38227;50.942;4.016;2023-03-31T16:06:32;12.60;99.90
52273;DHT22;38227;50.942;4.016;2023-03-31T16:09:20;12.60;99.90
52273;DHT22;38227;50.942;4.016;2023-03-31T16:12:00;12.50;99.90
52273;DHT22;38227;50.942;4.016;2023-03-31T16:14:41;12.60;99.90
52273;DHT22;38227;50.942;4.016;2023-03-31T16:17:39;12.50;99.90
52273;DHT22;38227;50.942;4.016;2023-03-31T16:20:32;12.50;99.90
52273;DHT22;38227;50.942;4.016;2023-03-31T16:23:27;12.50;99.90
52273;DHT22;38227;50.942;4.016;2023-03-31T16:26:02;12.50;99.90
52273;DHT22;38227;50.942;4.016;2023-03-31T16:28:44;12.60;99.90
52273;DHT22;38227;50.942;4.016;2023-03-31T16:31:45;12.60;99.90
52273;DHT22;38227;50.942;4.016;2023-03-31T16:34:18;12.50;99.90
52273;DHT22;38227;50.942;4.016;2023-03-31T16:36:49;12.60;99.90
52273;DHT22;38227;50.942;4.016;2023-03-31T16:39:19;12.50;99.90
52273;DHT22;38227;50.942;4.016;2023-03-31T16:41:50;12.30;99.90
52273;DHT22;38227;50.942;4.016;2023-03-31T16:44:53;12.30;99.90
52273;DHT22;38227;50.942;4.016;2023-03-31T16:47:26;12.10;99.90
52273;DHT22;38227;50.942;4.016;2023-03-31T16:50:07;12.00;99.90
52273;DHT22;38227;50.942;4.016;2023-03-31T16:52:38;11.90;99.90
52273;DHT22;38227;50.942;4.016;2023-03-31T16:55:08;11.70;99.90
52273;DHT22;38227;50.942;4.016;2023-03-31T16:57:39;11.70;99.90
52273;DHT22;38227;50.942;4.016;2023-03-31T17:00:12;11.60;99.90
52273;DHT22;38227;50.942;4.016;2023-03-31T17:02:49;11.60;99.90
52273;DHT22;38227;50.942;4.016;2023-03-31T17:05:17;11.60;99.90
52273;DHT22;38227;50.942;4.016;2023-03-31T17:08:20;11.60;99.90
52273;DHT22;38227;50.942;4.016;2023-03-31T17:11:01;11.60;99.90
52273;DHT22;38227;50.942;4.016;2023-03-31T17:13:42;11.50;99.90
52273;DHT22;38227;50.942;4.016;2023-03-31T17:16:12;11.50;99.90
52273;DHT22;38227;50.942;4.016;2023-03-31T17:18:48;11.50;99.90
52273;DHT22;38227;50.942;4.016;2023-03-31T17:21:44;11.50;99.90
52273;DHT22;38227;50.942;4.016;2023-03-31T17:24:14;11.50;99.90
52273;DHT22;38227;50.942;4.016;2023-03-31T17:27:06;11.60;99.90
52273;DHT22;38227;50.942;4.016;2023-03-31T17:29:35;11.60;99.90
52273;DHT22;38227;50.942;4.016;2023-03-31T17:32:26;11.60;99.90
52273;DHT22;38227;50.942;4.016;2023-03-31T17:35:05;11.50;99.90
52273;DHT22;38227;50.942;4.016;2023-03-31T17:37:37;11.50;99.90
52273;DHT22;38227;50.942;4.016;2023-03-31T17:40:10;11.50;99.90
52273;DHT22;38227;50.942;4.016;2023-03-31T17:43:02;11.50;99.90
52273;DHT22;38227;50.942;4.016;2023-03-31T17:45:31;11.30;99.90
52273;DHT22;38227;50.942;4.016;2023-03-31T17:48:12;11.30;99.90
52273;DHT22;38227;50.942;4.016;2023-03-31T17:50:42;11.30;99.90
52273;DHT22;38227;50.942;4.016;2023-03-31T17:53:24;11.30;99.90
52273;DHT22;38227;50.942;4.016;2023-03-31T17:56:09;11.40;99.90
52273;DHT22;38227;50.942;4.016;2023-03-31T17:58:56;11.30;99.90
52273;DHT22;38227;50.942;4.016;2023-03-31T18:01:36;11.20;99.90
52273;DHT22;38227;50.942;4.016;2023-03-31T18:04:05;11.30;99.90
52273;DHT22;38227;50.942;4.016;2023-03-31T18:06:40;11.30;99.90
52273;DHT22;38227;50.942;4.016;2023-03-31T18:09:32;11.30;99.90
52273;DHT22;38227;50.942;4.016;2023-03-31T18:12:04;11.30;99.90
52273;DHT22;38227;50.942;4.016;2023-03-31T18:14:54;11.20;99.90
52273;DHT22;38227;50.942;4.016;2023-03-31T18:17:24;11.20;99.90
52273;DHT22;38227;50.942;4.016;2023-03-31T18:19:54;11.20;99.90
52273;DHT22;38227;50.942;4.016;2023-03-31T18:22:24;11.20;99.90
52273;DHT22;38227;50.942;4.016;2023-03-31T18:24:54;11.20;99.90
52273;DHT22;38227;50.942;4.016;2023-03-31T18:27:45;11.20;99.90
52273;DHT22;38227;50.942;4.016;2023-03-31T18:30:17;11.20;99.90
52273;DHT22;38227;50.942;4.016;2023-03-31T18:33:15;11.30;99.90
52273;DHT22;38227;50.942;4.016;2023-03-31T18:35:55;11.20;99.90
52273;DHT22;38227;50.942;4.016;2023-03-31T18:38:32;11.30;99.90
52273;DHT22;38227;50.942;4.016;2023-03-31T18:41:33;11.20;99.90
52273;DHT22;38227;50.942;4.016;2023-03-31T18:44:07;11.20;99.90
52273;DHT22;38227;50.942;4.016;2023-03-31T18:46:58;11.20;99.90
52273;DHT22;38227;50.942;4.016;2023-03-31T18:49:30;11.30;99.90
52273;DHT22;38227;50.942;4.016;2023-03-31T18:52:22;11.20;99.90
52273;DHT22;38227;50.942;4.016;2023-03-31T18:55:15;11.20;99.90
52273;DHT22;38227;50.942;4.016;2023-03-31T18:57:55;11.20;99.90
52273;DHT22;38227;50.942;4.016;2023-03-31T19:00:38;11.10;99.90
52273;DHT22;38227;50.942;4.016;2023-03-31T19:03:16;11.10;99.90
52273;DHT22;38227;50.942;4.016;2023-03-31T19:05:45;11.20;99.90
52273;DHT22;38227;50.942;4.016;2023-03-31T19:08:36;11.20;99.90
52273;DHT22;38227;50.942;4.016;2023-03-31T19:11:08;11.20;99.90
52273;DHT22;38227;50.942;4.016;2023-03-31T19:13:46;11.20;99.90
52273;DHT22;38227;50.942;4.016;2023-03-31T19:16:16;11.10;99.90
52273;DHT22;38227;50.942;4.016;2023-03-31T19:18:51;11.10;99.90
52273;DHT22;38227;50.942;4.016;2023-03-31T19:21:23;11.10;99.90
52273;DHT22;38227;50.942;4.016;2023-03-31T19:24:07;11.00;99.90
52273;DHT22;38227;50.942;4.016;2023-03-31T19:26:41;11.00;99.90
52273;DHT22;38227;50.942;4.016;2023-03-31T19:29:31;11.10;99.90
52273;DHT22;38227;50.942;4.016;2023-03-31T19:32:01;11.10;99.90
52273;DHT22;38227;50.942;4.016;2023-03-31T19:35:02;11.10;99.90
52273;DHT22;38227;50.942;4.016;2023-03-31T19:37:51;11.10;99.90
52273;DHT22;38227;50.942;4.016;2023-03-31T19:40:26;11.00;99.90